Time;durP1;ratioP1;P1;durP2;ratioP2;P2;SDS_P1;SDS_P2;PMS_P1;PMS_P2;Temp;Humidity;BMP_temperature;BMP_pressure;BME280_temperature;BME280_humidity;BME280_pressure;Samples;Min_cycle;Max_cycle;Signal;HPM_P1;HPM_P2
2021/05/27 00:00:37;;;;;;;8.38;4.07;;;6.30;99.90;;;;;;5039429;28;20136;-86
2021/05/27 00:03:04;;;;;;;5.88;4.35;;;6.30;99.90;;;;;;5039089;28;20092;-85
2021/05/27 00:05:31;;;;;;;5.07;4.68;;;6.30;99.90;;;;;;5039837;28;20107;-86
2021/05/27 00:07:58;;;;;;;4.75;3.90;;;6.50;99.90;;;;;;5039191;28;20140;-85
2021/05/27 00:10:27;;;;;;;2.95;2.75;;;6.50;99.90;;;;;;5039544;28;20052;-86
2021/05/27 00:12:54;;;;;;;4.15;3.90;;;6.40;99.90;;;;;;5039020;28;20077;-86
2021/05/27 00:15:24;;;;;;;4.28;3.97;;;6.40;99.90;;;;;;5040285;28;20056;-87
2021/05/27 00:17:52;;;;;;;9.50;5.22;;;6.40;99.90;;;;;;5038540;28;20463;-85
2021/05/27 00:20:19;;;;;;;4.65;4.07;;;6.40;99.90;;;;;;5038064;28;20095;-86
2021/05/27 00:22:46;;;;;;;4.50;4.20;;;6.50;99.90;;;;;;5038779;28;20433;-86
2021/05/27 00:25:14;;;;;;;6.38;5.85;;;6.50;99.90;;;;;;5039309;28;20483;-86
2021/05/27 00:27:46;;;;;;;9.77;4.82;;;6.70;99.90;;;;;;5038882;28;20041;-84
2021/05/27 00:30:14;;;;;;;3.95;3.60;;;6.70;99.90;;;;;;5039066;28;20057;-84
2021/05/27 00:32:41;;;;;;;4.00;3.60;;;6.70;99.90;;;;;;5040076;28;20045;-85
2021/05/27 00:35:09;;;;;;;3.50;3.30;;;6.60;99.90;;;;;;5039380;28;20046;-85
2021/05/27 00:37:36;;;;;;;5.43;3.72;;;6.60;99.90;;;;;;5038358;28;20519;-86
2021/05/27 00:40:06;;;;;;;4.00;3.70;;;6.50;99.90;;;;;;5038612;28;20113;-84
2021/05/27 00:42:34;;;;;;;4.38;4.07;;;6.50;99.90;;;;;;5040262;28;20049;-86
2021/05/27 00:45:04;;;;;;;5.30;3.80;;;6.50;99.90;;;;;;5041957;28;20054;-85
2021/05/27 00:47:31;;;;;;;4.80;4.35;;;6.50;99.90;;;;;;5039800;28;20087;-86
2021/05/27 00:49:58;;;;;;;6.97;4.65;;;6.50;99.90;;;;;;5036334;28;20457;-86
2021/05/27 00:52:25;;;;;;;4.07;3.78;;;6.50;99.90;;;;;;5036078;28;20184;-85
2021/05/27 00:54:53;;;;;;;4.18;3.80;;;6.50;99.90;;;;;;5035006;28;20057;-87
2021/05/27 00:57:37;;;;;;;3.88;3.53;;;6.50;99.90;;;;;;5035399;28;20084;-86
2021/05/27 01:00:11;;;;;;;3.65;3.45;;;6.40;99.90;;;;;;5035231;28;20061;-86
2021/05/27 01:02:38;;;;;;;8.37;5.50;;;6.30;99.90;;;;;;5035607;28;20413;-84
2021/05/27 01:05:08;;;;;;;5.70;5.10;;;6.40;99.90;;;;;;5036261;28;20145;-86
2021/05/27 01:07:35;;;;;;;7.45;5.57;;;6.40;99.90;;;;;;5038222;28;20046;-86
2021/05/27 01:10:08;;;;;;;5.13;4.45;;;6.50;99.90;;;;;;5037506;28;20053;-87
2021/05/27 01:12:35;;;;;;;4.60;4.15;;;6.60;99.90;;;;;;5036883;28;20080;-85
2021/05/27 01:17:50;;;;;;;4.72;4.28;;;6.60;99.90;;;;;;5038836;28;20501;-85
2021/05/27 01:20:16;;;;;;;3.90;3.60;;;6.60;99.90;;;;;;5036708;28;20092;-85
2021/05/27 01:22:44;;;;;;;5.80;5.00;;;6.60;99.90;;;;;;5036714;28;20551;-85
2021/05/27 01:25:12;;;;;;;6.43;5.82;;;6.50;99.90;;;;;;5037255;28;20415;-86
2021/05/27 01:27:39;;;;;;;6.97;6.28;;;6.60;99.90;;;;;;5036256;28;20486;-84
2021/05/27 01:30:08;;;;;;;7.43;6.00;;;6.80;99.90;;;;;;5035778;28;20124;-85
2021/05/27 01:32:35;;;;;;;6.40;5.90;;;7.00;99.90;;;;;;5035439;28;20045;-87
2021/05/27 01:35:04;;;;;;;6.45;5.85;;;7.10;99.90;;;;;;5036329;28;20049;-85
2021/05/27 01:37:31;;;;;;;6.18;5.30;;;7.30;99.90;;;;;;5035633;28;20475;-85
2021/05/27 01:39:59;;;;;;;5.18;4.70;;;7.40;99.90;;;;;;5036352;28;20424;-86
2021/05/27 01:42:25;;;;;;;4.95;4.40;;;7.40;99.90;;;;;;5036585;28;20140;-86
2021/05/27 01:44:52;;;;;;;3.92;3.70;;;7.50;99.90;;;;;;5035623;28;20118;-85
2021/05/27 01:47:19;;;;;;;4.70;4.25;;;7.60;99.90;;;;;;5035698;28;20046;-87
2021/05/27 01:49:46;;;;;;;3.88;3.30;;;7.70;99.90;;;;;;5034945;28;20111;-87
2021/05/27 01:52:12;;;;;;;4.13;3.83;;;7.60;99.90;;;;;;5037719;28;20584;-86
2021/05/27 01:54:39;;;;;;;5.00;4.13;;;7.50;99.90;;;;;;5039598;28;20128;-85
2021/05/27 01:57:06;;;;;;;4.57;3.78;;;7.40;99.90;;;;;;5036727;28;20065;-86
2021/05/27 01:59:33;;;;;;;5.10;4.22;;;7.30;99.90;;;;;;5037473;28;20053;-87
2021/05/27 02:02:00;;;;;;;4.78;3.72;;;7.30;99.90;;;;;;5035234;28;20486;-85
2021/05/27 02:04:27;;;;;;;7.45;4.25;;;7.30;99.90;;;;;;5034393;28;20137;-86
2021/05/27 02:06:53;;;;;;;4.30;3.95;;;7.30;99.90;;;;;;5033879;28;20130;-86
2021/05/27 02:09:20;;;;;;;4.68;4.28;;;7.30;99.90;;;;;;5035315;28;20104;-87
2021/05/27 02:11:49;;;;;;;4.93;4.18;;;7.30;99.90;;;;;;5033638;28;20115;-86
2021/05/27 02:14:19;;;;;;;17.88;4.88;;;7.40;99.90;;;;;;5034660;28;20042;-86
2021/05/27 02:16:47;;;;;;;3.63;3.30;;;7.60;99.90;;;;;;5033299;28;20065;-84
2021/05/27 02:19:14;;;;;;;3.88;3.60;;;7.70;99.90;;;;;;5036066;28;20084;-86
2021/05/27 02:21:41;;;;;;;4.38;4.07;;;7.80;99.90;;;;;;5034210;28;20099;-85
2021/05/27 02:24:08;;;;;;;4.60;4.30;;;7.70;99.90;;;;;;5034191;28;20136;-86
2021/05/27 02:26:35;;;;;;;3.92;3.60;;;7.70;99.90;;;;;;5035630;28;20128;-85
2021/05/27 02:29:02;;;;;;;5.45;3.90;;;7.80;99.90;;;;;;5036000;28;20085;-87
2021/05/27 02:31:30;;;;;;;3.75;3.45;;;7.80;99.90;;;;;;5035503;28;20221;-87
2021/05/27 02:33:58;;;;;;;3.72;3.47;;;7.80;99.90;;;;;;5034473;28;20085;-87
2021/05/27 02:36:26;;;;;;;3.58;2.97;;;7.90;99.90;;;;;;5034019;28;20077;-87
2021/05/27 02:38:53;;;;;;;4.35;3.95;;;8.10;99.90;;;;;;5033971;28;20117;-86
2021/05/27 02:41:20;;;;;;;3.28;3.00;;;8.20;99.90;;;;;;5034478;28;20093;-86
2021/05/27 02:43:48;;;;;;;4.35;4.03;;;8.30;99.90;;;;;;5034070;28;20119;-84
2021/05/27 02:46:14;;;;;;;3.58;3.38;;;8.30;99.90;;;;;;5034780;28;20120;-86
2021/05/27 02:48:49;;;;;;;11.85;4.93;;;8.30;99.90;;;;;;5034359;28;20447;-83
2021/05/27 02:51:16;;;;;;;4.43;4.03;;;8.40;99.90;;;;;;5034676;28;20471;-87
2021/05/27 02:53:42;;;;;;;4.15;3.05;;;8.40;99.90;;;;;;5036509;28;20530;-86
2021/05/27 02:56:09;;;;;;;6.03;4.30;;;8.50;99.90;;;;;;5034645;28;20475;-85
2021/05/27 02:58:37;;;;;;;3.70;3.40;;;8.60;99.90;;;;;;5035248;28;20461;-86
2021/05/27 03:01:04;;;;;;;4.97;3.58;;;8.60;99.90;;;;;;5035210;28;20049;-85
2021/05/27 03:03:30;;;;;;;3.30;3.10;;;8.60;99.90;;;;;;5035933;28;20100;-85
2021/05/27 03:05:58;;;;;;;13.48;6.70;;;8.60;99.90;;;;;;5037718;28;20218;-87
2021/05/27 03:08:27;;;;;;;3.90;3.60;;;8.60;99.90;;;;;;5037555;28;20084;-85
2021/05/27 03:10:54;;;;;;;3.60;3.15;;;8.70;99.90;;;;;;5038390;28;20049;-86
2021/05/27 03:13:21;;;;;;;3.25;3.00;;;8.70;99.90;;;;;;5038970;28;20042;-87
2021/05/27 03:15:48;;;;;;;3.47;3.25;;;8.70;99.90;;;;;;5034867;28;20088;-85
2021/05/27 03:18:17;;;;;;;4.65;3.60;;;8.70;99.90;;;;;;5033998;28;20099;-85
2021/05/27 03:20:44;;;;;;;3.30;2.80;;;8.70;99.90;;;;;;5034567;28;20049;-86
2021/05/27 03:23:13;;;;;;;3.85;3.22;;;8.70;99.90;;;;;;5033699;28;20057;-85
2021/05/27 03:25:40;;;;;;;3.13;2.63;;;8.70;99.90;;;;;;5032618;28;20148;-84
2021/05/27 03:28:07;;;;;;;3.78;2.75;;;8.70;99.90;;;;;;5033534;28;20132;-84
2021/05/27 03:30:34;;;;;;;3.95;2.90;;;8.70;99.90;;;;;;5034749;28;20192;-84
2021/05/27 03:33:01;;;;;;;3.45;3.10;;;8.70;99.90;;;;;;5034368;28;20087;-85
2021/05/27 03:35:28;;;;;;;4.10;2.75;;;8.70;99.90;;;;;;5033187;28;20141;-85
2021/05/27 03:37:54;;;;;;;3.88;3.17;;;8.70;99.90;;;;;;5034319;28;20060;-86
2021/05/27 03:40:21;;;;;;;2.90;2.75;;;8.80;99.90;;;;;;5033235;28;20140;-85
2021/05/27 03:42:53;;;;;;;3.58;2.92;;;8.80;99.90;;;;;;5034845;28;20080;-85
2021/05/27 03:45:28;;;;;;;4.85;2.92;;;8.80;99.90;;;;;;5034674;28;20053;-86
2021/05/27 03:47:55;;;;;;;3.30;3.00;;;8.90;99.90;;;;;;5034156;28;20056;-86
2021/05/27 03:50:24;;;;;;;3.25;3.00;;;8.90;99.90;;;;;;5034349;28;20053;-85
2021/05/27 03:52:51;;;;;;;3.15;2.85;;;8.90;99.90;;;;;;5033883;28;20077;-84
2021/05/27 03:55:20;;;;;;;8.10;3.30;;;8.90;99.90;;;;;;5034022;28;20136;-84
2021/05/27 03:57:47;;;;;;;6.63;3.60;;;8.90;99.90;;;;;;5035656;28;20491;-82
2021/05/27 04:03:05;;;;;;;3.63;2.92;;;8.90;99.90;;;;;;5036428;28;20049;-85
2021/05/27 04:08:19;;;;;;;3.85;2.72;;;9.00;99.90;;;;;;5034660;28;20129;-84
2021/05/27 04:10:46;;;;;;;3.13;2.85;;;9.00;99.90;;;;;;5034607;28;20085;-86
2021/05/27 04:13:13;;;;;;;4.63;3.22;;;9.10;99.90;;;;;;5036989;28;20500;-85
2021/05/27 04:15:40;;;;;;;4.70;3.03;;;9.30;99.90;;;;;;5037388;28;20084;-85
2021/05/27 04:18:18;;;;;;;2.95;2.72;;;9.30;99.90;;;;;;5037106;28;20479;-85
2021/05/27 04:20:58;;;;;;;3.95;3.65;;;9.40;99.90;;;;;;5038357;28;20128;-84
2021/05/27 04:23:37;;;;;;;16.42;5.90;;;9.40;99.90;;;;;;5038373;28;20049;-82
2021/05/27 04:26:06;;;;;;;4.97;2.58;;;9.50;99.90;;;;;;5037051;28;20069;-84
2021/05/27 04:28:33;;;;;;;3.75;2.85;;;9.60;99.90;;;;;;5037649;28;20531;-85
2021/05/27 04:31:09;;;;;;;5.10;3.25;;;9.60;99.90;;;;;;5037353;28;20073;-84
2021/05/27 04:33:49;;;;;;;3.60;3.17;;;9.60;99.90;;;;;;5035936;28;20128;-83
2021/05/27 04:36:18;;;;;;;6.72;2.55;;;9.60;99.90;;;;;;5037243;28;20077;-83
2021/05/27 04:38:46;;;;;;;3.50;2.88;;;9.60;99.90;;;;;;5037764;28;20128;-85
2021/05/27 04:41:15;;;;;;;3.28;2.95;;;9.70;99.90;;;;;;5036273;28;20128;-85
2021/05/27 04:43:42;;;;;;;4.07;3.10;;;9.70;99.90;;;;;;5035555;28;20093;-85
2021/05/27 04:46:09;;;;;;;13.82;3.70;;;9.70;99.90;;;;;;5036771;28;20073;-83
2021/05/27 04:48:37;;;;;;;4.70;3.50;;;9.70;99.90;;;;;;5035277;28;20049;-84
2021/05/27 04:51:04;;;;;;;5.00;3.25;;;9.70;99.90;;;;;;5035410;28;20073;-84
2021/05/27 04:53:31;;;;;;;3.45;2.97;;;9.70;99.90;;;;;;5037130;28;20119;-83
2021/05/27 04:55:59;;;;;;;4.60;3.70;;;9.70;99.90;;;;;;5036385;28;20568;-85
2021/05/27 04:58:26;;;;;;;4.55;3.80;;;9.60;99.90;;;;;;5036112;28;20072;-86
2021/05/27 05:00:53;;;;;;;3.13;2.92;;;9.50;99.90;;;;;;5035678;28;20453;-85
2021/05/27 05:03:20;;;;;;;8.98;4.38;;;9.50;99.90;;;;;;5036674;28;20109;-87
2021/05/27 05:05:47;;;;;;;4.75;3.33;;;9.50;99.90;;;;;;5037178;28;20085;-84
2021/05/27 05:08:13;;;;;;;3.50;3.20;;;9.50;99.90;;;;;;5036709;28;20092;-84
2021/05/27 05:10:45;;;;;;;5.88;3.58;;;9.50;99.90;;;;;;5035734;28;20049;-84
2021/05/27 05:13:12;;;;;;;4.18;3.53;;;9.50;99.90;;;;;;5038751;28;20459;-86
2021/05/27 05:15:40;;;;;;;4.88;3.58;;;9.50;99.90;;;;;;5036142;28;20496;-85
2021/05/27 05:18:10;;;;;;;5.28;3.75;;;9.60;99.90;;;;;;5037696;28;20416;-86
2021/05/27 05:20:39;;;;;;;3.53;3.25;;;9.50;99.90;;;;;;5035782;28;20077;-85
2021/05/27 05:23:07;;;;;;;4.90;4.00;;;9.50;99.90;;;;;;5035968;28;20077;-85
2021/05/27 05:25:35;;;;;;;5.18;3.83;;;9.60;99.90;;;;;;5035846;28;20061;-84
2021/05/27 05:28:03;;;;;;;4.57;3.53;;;9.70;99.90;;;;;;5035739;28;20081;-85
2021/05/27 05:30:31;;;;;;;4.50;3.65;;;9.70;99.90;;;;;;5036443;28;20045;-86
2021/05/27 05:32:58;;;;;;;3.85;3.53;;;9.70;99.90;;;;;;5036488;28;20164;-84
2021/05/27 05:35:27;;;;;;;3.45;3.13;;;9.70;99.90;;;;;;5035289;28;20050;-84
2021/05/27 05:37:54;;;;;;;3.15;3.05;;;9.70;99.90;;;;;;5036460;28;20132;-84
2021/05/27 06:57:45;;;;;;;2.15;1.27;;;11.70;99.90;;;;;;5076657;22;20185;-83
2021/05/27 07:00:18;;;;;;;1.92;1.40;;;12.00;99.90;;;;;;5118941;28;20494;-83
2021/05/27 07:02:46;;;;;;;;;;;12.10;99.90;;;;;;5101045;28;20054;-84
2021/05/27 07:05:14;;;;;;;1.40;1.00;;;12.30;99.90;;;;;;5092948;28;19920;-82
2021/05/27 07:07:41;;;;;;;1.60;1.13;;;12.40;99.90;;;;;;5079138;28;20068;-84
2021/05/27 07:10:09;;;;;;;2.15;1.23;;;12.40;99.90;;;;;;5080306;28;20048;-82
2021/05/27 07:12:36;;;;;;;1.80;1.70;;;12.50;99.90;;;;;;5079648;28;20090;-85
2021/05/27 07:15:04;;;;;;;3.15;2.35;;;12.40;99.90;;;;;;5079279;28;20139;-83
2021/05/27 07:17:31;;;;;;;2.58;2.38;;;12.20;99.90;;;;;;5078962;28;20111;-84
2021/05/27 07:19:58;;;;;;;3.50;3.20;;;11.80;99.90;;;;;;5080020;28;20430;-85
2021/05/27 07:22:25;;;;;;;3.08;2.88;;;11.50;99.90;;;;;;5081155;28;20120;-85
2021/05/27 07:24:51;;;;;;;5.00;2.75;;;11.30;99.90;;;;;;5078516;28;20083;-83
2021/05/27 07:27:18;;;;;;;5.85;3.17;;;11.00;99.90;;;;;;5078534;28;20056;-82
2021/05/27 07:29:48;;;;;;;5.63;3.33;;;11.00;99.90;;;;;;5078775;28;20082;-85
2021/05/27 07:32:15;;;;;;;3.92;2.70;;;11.00;99.90;;;;;;5079590;28;20082;-84
2021/05/27 07:34:45;;;;;;;3.28;3.13;;;11.10;99.90;;;;;;5081539;28;20055;-84
2021/05/27 07:37:12;;;;;;;3.17;2.88;;;11.20;99.90;;;;;;5079733;28;20506;-83
2021/05/27 07:39:39;;;;;;;3.70;2.80;;;11.20;99.90;;;;;;5081234;28;20052;-85
2021/05/27 07:42:07;;;;;;;2.47;2.30;;;11.10;99.90;;;;;;5080137;28;20088;-85
2021/05/27 07:44:34;;;;;;;2.78;2.17;;;11.10;99.90;;;;;;5082129;28;20113;-84
2021/05/27 07:47:01;;;;;;;2.45;2.25;;;11.10;99.90;;;;;;5081512;28;20139;-83
2021/05/27 07:49:28;;;;;;;2.85;2.20;;;11.10;99.90;;;;;;5085430;28;20067;-83
2021/05/27 07:51:56;;;;;;;1.95;1.85;;;11.10;99.90;;;;;;5083867;28;20048;-85
2021/05/27 07:54:23;;;;;;;1.58;1.52;;;11.20;99.90;;;;;;5083252;28;20064;-86
2021/05/27 07:56:50;;;;;;;5.88;2.20;;;11.10;99.90;;;;;;5084705;28;20070;-85
2021/05/27 07:59:17;;;;;;;2.60;1.38;;;11.20;99.90;;;;;;5063806;28;20053;-83
2021/05/27 08:01:45;;;;;;;1.92;1.73;;;11.30;99.90;;;;;;5063138;28;20109;-83
2021/05/27 08:04:12;;;;;;;1.38;1.25;;;11.40;99.90;;;;;;5061524;28;20111;-84
2021/05/27 08:06:40;;;;;;;1.13;1.13;;;11.50;99.90;;;;;;5061080;28;20072;-85
2021/05/27 08:09:08;;;;;;;1.40;1.27;;;11.50;99.90;;;;;;5061617;28;20083;-84
2021/05/27 08:11:35;;;;;;;1.63;1.50;;;11.60;99.90;;;;;;5059679;28;20049;-84
2021/05/27 08:14:02;;;;;;;2.03;1.75;;;11.90;99.90;;;;;;5060013;28;20056;-79
2021/05/27 08:16:29;;;;;;;2.30;1.48;;;12.00;99.90;;;;;;5058142;28;20084;-82
2021/05/27 08:18:56;;;;;;;4.47;1.75;;;12.40;99.90;;;;;;5060992;28;20056;-82
2021/05/27 08:21:25;;;;;;;1.95;1.77;;;12.80;99.90;;;;;;5060217;28;20114;-83
2021/05/27 08:23:51;;;;;;;2.88;1.80;;;12.90;99.90;;;;;;5062696;28;20049;-85
2021/05/27 08:26:18;;;;;;;2.72;1.85;;;12.80;99.90;;;;;;5059877;28;20053;-85
2021/05/27 08:28:47;;;;;;;2.78;2.58;;;12.40;99.90;;;;;;5060069;28;20113;-83
2021/05/27 08:31:14;;;;;;;3.03;2.83;;;12.30;99.90;;;;;;5060120;28;20109;-84
2021/05/27 08:33:42;;;;;;;3.42;2.65;;;12.00;99.90;;;;;;5058768;28;20073;-86
2021/05/27 08:36:09;;;;;;;5.22;2.85;;;11.80;99.90;;;;;;5059981;28;20045;-81
2021/05/27 08:38:36;;;;;;;4.20;2.38;;;11.60;99.90;;;;;;5059512;28;20538;-84
2021/05/27 08:41:03;;;;;;;3.70;2.95;;;11.60;99.90;;;;;;5062943;28;20049;-84
2021/05/27 08:43:32;;;;;;;4.07;2.90;;;11.40;99.90;;;;;;5064223;28;20061;-86
2021/05/27 08:46:02;;;;;;;4.68;3.05;;;11.30;99.90;;;;;;5063192;28;20083;-83
2021/05/27 08:48:29;;;;;;;3.65;3.00;;;11.30;99.90;;;;;;5062911;28;20486;-85
2021/05/27 08:50:57;;;;;;;4.50;3.25;;;11.30;99.90;;;;;;5061723;28;20061;-83
2021/05/27 08:53:24;;;;;;;5.70;3.60;;;11.30;99.90;;;;;;5061106;28;20073;-84
2021/05/27 08:55:51;;;;;;;6.65;3.42;;;11.30;99.90;;;;;;5060735;28;20507;-81
2021/05/27 08:58:18;;;;;;;7.10;4.25;;;11.30;99.90;;;;;;5059857;28;20466;-85
2021/05/27 09:00:45;;;;;;;3.80;3.25;;;11.30;99.90;;;;;;5061390;28;20049;-86
2021/05/27 09:03:15;;;;;;;3.95;3.60;;;11.20;99.90;;;;;;5060500;28;20067;-85
2021/05/27 09:05:42;;;;;;;7.00;3.60;;;11.10;99.90;;;;;;5059741;28;20518;-83
2021/05/27 09:08:24;;;;;;;3.83;3.55;;;11.10;99.90;;;;;;5059584;28;20046;-84
2021/05/27 09:10:51;;;;;;;4.18;3.45;;;11.10;99.90;;;;;;5059774;28;20073;-84
2021/05/27 09:13:19;;;;;;;3.53;3.22;;;11.00;99.90;;;;;;5058053;28;20045;-83
2021/05/27 09:15:48;;;;;;;3.22;3.00;;;11.00;99.90;;;;;;5060943;28;20487;-84
2021/05/27 09:18:28;;;;;;;4.82;3.13;;;11.00;99.90;;;;;;5063101;28;20045;-84
2021/05/27 09:20:56;;;;;;;4.18;2.90;;;11.00;99.90;;;;;;5061785;28;20488;-84
2021/05/27 09:23:23;;;;;;;3.33;2.72;;;11.00;99.90;;;;;;5060059;28;20045;-85
2021/05/27 09:26:09;;;;;;;2.90;2.70;;;11.10;99.90;;;;;;5060847;28;20080;-84
2021/05/27 09:28:35;;;;;;;4.70;2.50;;;11.30;99.90;;;;;;5061624;28;20120;-84
2021/05/27 09:31:05;;;;;;;2.90;2.70;;;11.50;99.90;;;;;;5063821;28;20049;-84
2021/05/27 09:34:00;;;;;;;2.65;2.03;;;11.70;99.90;;;;;;5063497;28;20059;-82
2021/05/27 09:36:26;;;;;;;;;;;12.00;99.90;;;;;;5060660;28;20507;-85
2021/05/27 09:38:56;;;;;;;2.67;1.92;;;12.10;99.90;;;;;;5063027;28;19921;-83
2021/05/27 09:41:28;;;;;;;3.25;1.83;;;12.20;99.90;;;;;;5059080;28;20057;-82
2021/05/27 09:44:00;;;;;;;2.00;1.88;;;12.30;99.90;;;;;;5060535;28;20476;-83
2021/05/27 09:46:29;;;;;;;5.83;1.90;;;12.40;99.90;;;;;;5063525;28;20072;-85
2021/05/27 09:49:03;;;;;;;2.17;1.90;;;12.50;99.90;;;;;;5060692;28;20492;-85
2021/05/27 09:51:30;;;;;;;3.45;1.80;;;12.80;99.90;;;;;;5058766;28;20153;-84
2021/05/27 09:53:57;;;;;;;2.53;1.90;;;12.80;99.90;;;;;;5057765;28;20140;-85
2021/05/27 09:56:38;;;;;;;1.90;1.80;;;12.60;99.90;;;;;;5061604;28;20380;-83
2021/05/27 09:59:11;;;;;;;2.88;1.55;;;12.60;99.90;;;;;;5060199;28;20055;-84
2021/05/27 10:01:40;;;;;;;4.65;2.08;;;12.80;99.90;;;;;;5059136;28;20076;-84
2021/05/27 10:04:15;;;;;;;2.85;1.60;;;12.80;99.90;;;;;;5057451;28;20575;-83
2021/05/27 10:06:43;;;;;;;4.47;1.67;;;12.90;99.90;;;;;;5056341;28;20499;-84
2021/05/27 10:09:10;;;;;;;2.40;2.30;;;13.10;99.90;;;;;;5058770;28;20477;-84
2021/05/27 10:11:38;;;;;;;4.05;1.45;;;13.60;99.90;;;;;;5057527;28;20508;-85
2021/05/27 10:14:10;;;;;;;2.05;1.40;;;14.40;99.90;;;;;;5056108;28;20044;-83
2021/05/27 10:16:38;;;;;;;3.50;1.40;;;14.60;99.90;;;;;;5055611;28;20041;-83
2021/05/27 10:19:06;;;;;;;1.60;1.50;;;14.50;99.90;;;;;;5056756;28;20053;-85
2021/05/27 10:21:33;;;;;;;2.55;1.38;;;14.30;99.90;;;;;;5054929;28;20075;-85
2021/05/27 10:24:01;;;;;;;4.72;1.67;;;14.40;99.90;;;;;;5054855;28;20053;-86
2021/05/27 10:26:28;;;;;;;1.42;1.33;;;14.80;99.90;;;;;;5054402;28;20135;-84
2021/05/27 10:29:15;;;;;;;2.25;1.20;;;15.10;99.90;;;;;;5054631;28;20065;-85
2021/05/27 10:31:47;;;;;;;1.00;1.00;;;15.90;99.90;;;;;;5054499;28;20136;-85
2021/05/27 10:34:46;;;;;;;1.33;1.10;;;17.30;99.90;;;;;;5054189;28;20479;-85
2021/05/27 10:37:18;;;;;;;1.40;1.30;;;17.20;99.90;;;;;;5055757;28;20052;-86
2021/05/27 10:39:45;;;;;;;1.17;1.02;;;17.10;99.90;;;;;;5055638;28;20478;-86
2021/05/27 10:42:11;;;;;;;4.70;1.52;;;16.40;99.90;;;;;;5056443;28;20076;-85
2021/05/27 10:45:08;;;;;;;0.93;0.93;;;15.70;99.90;;;;;;5053765;28;20084;-86
2021/05/27 10:47:35;;;;;;;9.35;1.33;;;15.80;99.90;;;;;;5055607;28;20053;-85
2021/05/27 10:50:04;;;;;;;5.65;1.15;;;15.00;99.90;;;;;;5055398;28;20049;-85
2021/05/27 10:52:32;;;;;;;0.90;0.90;;;14.60;99.90;;;;;;5055124;28;20594;-85
2021/05/27 10:54:59;;;;;;;2.47;1.00;;;14.20;99.90;;;;;;5056065;28;20075;-83
2021/05/27 10:57:38;;;;;;;2.03;0.80;;;14.10;99.90;;;;;;5059532;28;20058;-86
2021/05/27 11:00:32;;;;;;;1.42;1.20;;;14.10;99.90;;;;;;5079614;28;20044;-86
2021/05/27 11:03:41;;;;;;;2.15;0.90;;;14.10;99.90;;;;;;5078289;28;20086;-87
2021/05/27 11:06:30;;;;;;;1.50;0.70;;;14.20;99.90;;;;;;5067691;28;20147;-86
2021/05/27 11:09:24;;;;;;;1.25;0.90;;;14.30;99.90;;;;;;5078700;28;20085;-86
2021/05/27 11:12:23;;;;;;;1.33;0.60;;;14.20;99.90;;;;;;5098010;28;20079;-86
2021/05/27 11:14:50;;;;;;;0.75;0.75;;;14.10;99.90;;;;;;5062807;28;20059;-85
2021/05/27 11:17:20;;;;;;;0.73;0.73;;;14.00;99.90;;;;;;5080182;28;20074;-84
2021/05/27 11:20:02;;;;;;;2.33;0.80;;;14.00;99.90;;;;;;5078771;28;20139;-85
2021/05/27 11:22:37;;;;;;;2.05;0.70;;;14.10;99.90;;;;;;5079898;28;20050;-85
2021/05/27 11:25:07;;;;;;;0.70;0.70;;;13.90;99.90;;;;;;5080930;28;20136;-86
2021/05/27 11:27:52;;;;;;;4.50;1.27;;;13.70;99.90;;;;;;5081329;28;20139;-86
2021/05/27 11:30:28;;;;;;;9.65;1.50;;;13.60;99.90;;;;;;5081162;28;20520;-85
2021/05/27 11:33:00;;;;;;;1.52;1.00;;;13.50;99.90;;;;;;5082563;28;20140;-85
2021/05/27 11:35:48;;;;;;;2.67;1.13;;;13.40;99.90;;;;;;5083612;28;20079;-86
2021/05/27 11:45:53;;;;;;;1.65;1.10;;;13.50;99.90;;;;;;5098035;22;20615;-91
2021/05/27 11:48:44;;;;;;;2.05;1.10;;;13.60;99.90;;;;;;5086874;28;20076;-94
2021/05/27 11:51:16;;;;;;;1.00;1.00;;;13.50;99.90;;;;;;5064162;28;20506;-95
2021/05/27 11:53:51;;;;;;;1.05;1.05;;;13.50;99.90;;;;;;5198424;22;20048;-96
2021/05/27 11:56:39;;;;;;;3.42;1.73;;;13.50;99.90;;;;;;5066981;28;20049;-94
2021/05/27 11:59:18;;;;;;;1.13;1.10;;;13.70;99.90;;;;;;5064442;28;20048;-96
2021/05/27 12:01:53;;;;;;;3.42;1.38;;;13.80;99.90;;;;;;5067962;28;20105;-91
2021/05/27 12:04:26;;;;;;;2.40;1.40;;;13.60;99.90;;;;;;5066946;28;20053;-96
2021/05/27 12:07:17;;;;;;;6.95;1.60;;;13.60;99.90;;;;;;5080314;28;20098;-91
2021/05/27 12:09:47;;;;;;;4.22;1.48;;;13.60;99.90;;;;;;5065387;28;20095;-95
2021/05/27 12:12:19;;;;;;;1.10;0.90;;;13.70;99.90;;;;;;5081478;28;20091;-94
2021/05/27 12:14:51;;;;;;;2.80;1.20;;;13.80;99.90;;;;;;5081761;28;20135;-94
2021/05/27 12:17:39;;;;;;;1.47;1.07;;;13.70;99.90;;;;;;5062950;28;20144;-95
2021/05/27 12:20:10;;;;;;;1.20;1.20;;;13.70;99.90;;;;;;5064445;28;20273;-94
2021/05/27 12:22:59;;;;;;;2.35;1.30;;;13.60;99.90;;;;;;5062099;28;20127;-95
2021/05/27 12:25:42;;;;;;;2.43;1.10;;;13.60;99.90;;;;;;5064381;28;20084;-90
2021/05/27 12:28:20;;;;;;;1.00;1.00;;;13.70;99.90;;;;;;5064262;28;20779;-96
2021/05/27 12:30:58;;;;;;;0.88;0.88;;;13.90;99.90;;;;;;5063500;28;20090;-92
2021/05/27 12:33:30;;;;;;;1.90;1.13;;;14.00;99.90;;;;;;5061401;28;20045;-90
2021/05/27 12:36:19;;;;;;;2.08;1.48;;;13.90;99.90;;;;;;5061370;28;20143;-94
2021/05/27 12:38:49;;;;;;;1.42;1.13;;;13.90;99.90;;;;;;5067318;28;20040;-96
2021/05/27 12:41:18;;;;;;;9.18;1.50;;;14.20;99.90;;;;;;5062780;28;20135;-93
2021/05/27 12:43:50;;;;;;;4.30;1.23;;;14.30;99.90;;;;;;5062894;28;20143;-92
2021/05/27 12:46:30;;;;;;;1.00;1.00;;;14.30;99.90;;;;;;5065247;28;20131;-94
2021/05/27 12:48:58;;;;;;;1.15;1.10;;;14.50;99.90;;;;;;5086924;28;20108;-92
2021/05/27 12:51:35;;;;;;;2.15;0.80;;;14.70;99.90;;;;;;5060034;28;20496;-88
2021/05/27 12:54:05;;;;;;;6.53;1.15;;;14.70;99.90;;;;;;5065656;28;20061;-95
2021/05/27 12:56:35;;;;;;;0.73;0.73;;;14.70;99.90;;;;;;5064672;28;20576;-91
2021/05/27 12:59:15;;;;;;;1.00;0.88;;;14.80;99.90;;;;;;5065869;28;20083;-94
2021/05/27 13:01:57;;;;;;;6.38;1.50;;;14.80;99.90;;;;;;5085901;28;20109;-94
2021/05/27 13:04:35;;;;;;;1.83;1.00;;;14.60;99.90;;;;;;5081002;28;20048;-92
2021/05/27 13:07:10;;;;;;;2.17;1.27;;;14.30;99.90;;;;;;5062379;28;20045;-89
2021/05/27 13:09:54;;;;;;;0.90;0.90;;;14.10;99.90;;;;;;5065808;28;20052;-92
2021/05/27 13:12:23;;;;;;;1.33;1.23;;;14.40;99.90;;;;;;5068998;28;20139;-94
2021/05/27 13:15:20;;;;;;;1.30;0.77;;;14.70;99.90;;;;;;5066259;28;20079;-95
2021/05/27 13:18:08;;;;;;;1.27;0.80;;;15.10;99.90;;;;;;5063716;28;20117;-93
2021/05/27 13:21:04;;;;;;;4.22;1.50;;;15.20;99.90;;;;;;5063427;28;20061;-88
2021/05/27 13:23:39;;;;;;;0.77;0.77;;;15.40;99.90;;;;;;5067012;28;20068;-96
2021/05/27 13:26:18;;;;;;;5.43;0.77;;;15.40;99.90;;;;;;5066857;28;20155;-91
2021/05/27 13:29:00;;;;;;;0.68;0.68;;;15.90;99.90;;;;;;5065429;28;20053;-94
2021/05/27 13:31:38;;;;;;;2.25;0.60;;;15.80;99.90;;;;;;5065502;28;20112;-91
2021/05/27 13:34:06;;;;;;;0.70;0.70;;;15.50;99.90;;;;;;5070799;28;20107;-92
2021/05/27 13:36:43;;;;;;;1.60;0.90;;;15.40;99.90;;;;;;5060998;28;20130;-94
2021/05/27 13:39:23;;;;;;;0.85;0.85;;;15.00;99.90;;;;;;5061746;28;20084;-90
2021/05/27 13:41:50;;;;;;;5.25;1.05;;;14.60;99.90;;;;;;5044835;28;20044;-91
2021/05/27 13:44:17;;;;;;;2.25;0.80;;;14.20;99.90;;;;;;5066915;22;20052;-85
2021/05/27 13:46:52;;;;;;;0.95;0.90;;;13.70;99.90;;;;;;5058774;28;20052;-84
2021/05/27 13:49:19;;;;;;;0.70;0.70;;;13.50;99.90;;;;;;5058192;28;20053;-86
2021/05/27 13:51:49;;;;;;;0.77;0.77;;;13.50;99.90;;;;;;5076699;28;20080;-85
2021/05/27 13:54:16;;;;;;;0.70;0.70;;;13.80;99.90;;;;;;5057666;28;20123;-86
2021/05/27 13:56:43;;;;;;;0.80;0.80;;;14.10;99.90;;;;;;5057459;28;20135;-87
2021/05/27 13:59:10;;;;;;;2.58;0.77;;;14.50;99.90;;;;;;5057495;28;20526;-87
2021/05/27 14:01:38;;;;;;;3.08;0.93;;;14.80;99.90;;;;;;5057623;28;20574;-85
2021/05/27 14:04:08;;;;;;;0.73;0.73;;;14.90;99.90;;;;;;5057435;28;20045;-87
2021/05/27 14:06:36;;;;;;;6.53;1.10;;;15.00;99.90;;;;;;5057363;28;20060;-87
2021/05/27 14:09:07;;;;;;;0.68;0.68;;;14.90;99.90;;;;;;5056816;28;20166;-86
2021/05/27 14:11:38;;;;;;;0.50;0.50;;;14.90;99.90;;;;;;5056812;28;20045;-87
2021/05/27 14:14:07;;;;;;;0.50;0.50;;;14.90;99.90;;;;;;5057169;28;20048;-85
2021/05/27 14:16:36;;;;;;;0.70;0.70;;;15.00;99.90;;;;;;5056781;28;20104;-85
2021/05/27 14:19:04;;;;;;;0.90;0.50;;;14.80;99.90;;;;;;5058924;28;20132;-86
2021/05/27 14:21:32;;;;;;;0.40;0.40;;;14.70;99.90;;;;;;5077636;28;20127;-86
2021/05/27 14:23:59;;;;;;;8.88;0.90;;;14.60;99.90;;;;;;5058400;28;20051;-86
2021/05/27 14:26:30;;;;;;;1.27;0.60;;;14.80;99.90;;;;;;5057906;28;20489;-86
2021/05/27 14:29:07;;;;;;;4.55;0.40;;;14.70;99.90;;;;;;5058858;28;20056;-85
2021/05/27 14:31:33;;;;;;;0.50;0.40;;;14.70;99.90;;;;;;5058119;28;20086;-85
2021/05/27 14:34:00;;;;;;;0.40;0.40;;;14.70;99.90;;;;;;5057239;28;20044;-87
2021/05/27 14:36:28;;;;;;;0.40;0.40;;;14.70;99.90;;;;;;5058142;28;20098;-86
2021/05/27 14:38:55;;;;;;;0.55;0.55;;;14.80;99.90;;;;;;5075532;28;20051;-85
2021/05/27 14:41:22;;;;;;;4.63;1.08;;;14.90;99.90;;;;;;5057325;28;20235;-86